sensor_id;sensor_type;location;lat;lon;timestamp;P1;durP1;ratioP1;P2;durP2;ratioP2
8550;SDS011;4313;42.000;21.380;2024-01-27T00:00:50;39.27;;;25.57;;
8550;SDS011;4313;42.000;21.380;2024-01-27T00:03:19;35.50;;;20.17;;
8550;SDS011;4313;42.000;21.380;2024-01-27T00:05:46;30.70;;;18.83;;
8550;SDS011;4313;42.000;21.380;2024-01-27T00:08:13;31.90;;;19.30;;
8550;SDS011;4313;42.000;21.380;2024-01-27T00:10:41;38.80;;;21.93;;
8550;SDS011;4313;42.000;21.380;2024-01-27T00:13:11;31.23;;;19.57;;
8550;SDS011;4313;42.000;21.380;2024-01-27T00:15:38;27.20;;;17.77;;
8550;SDS011;4313;42.000;21.380;2024-01-27T00:18:05;29.93;;;17.97;;
8550;SDS011;4313;42.000;21.380;2024-01-27T00:20:34;28.83;;;16.37;;
8550;SDS011;4313;42.000;21.380;2024-01-27T00:23:02;33.27;;;18.83;;
8550;SDS011;4313;42.000;21.380;2024-01-27T00:25:29;33.17;;;22.07;;
8550;SDS011;4313;42.000;21.380;2024-01-27T00:27:56;38.10;;;23.10;;
8550;SDS011;4313;42.000;21.380;2024-01-27T00:30:24;37.77;;;25.63;;
8550;SDS011;4313;42.000;21.380;2024-01-27T00:32:51;44.43;;;26.10;;
8550;SDS011;4313;42.000;21.380;2024-01-27T00:35:18;38.57;;;22.90;;
8550;SDS011;4313;42.000;21.380;2024-01-27T00:37:47;35.30;;;21.20;;
8550;SDS011;4313;42.000;21.380;2024-01-27T00:40:14;35.00;;;20.53;;
8550;SDS011;4313;42.000;21.380;2024-01-27T00:42:42;38.67;;;24.60;;
8550;SDS011;4313;42.000;21.380;2024-01-27T00:45:09;37.97;;;23.80;;
8550;SDS011;4313;42.000;21.380;2024-01-27T00:47:36;52.07;;;29.90;;
8550;SDS011;4313;42.000;21.380;2024-01-27T00:50:04;102.53;;;53.60;;
8550;SDS011;4313;42.000;21.380;2024-01-27T00:52:33;84.73;;;46.27;;
8550;SDS011;4313;42.000;21.380;2024-01-27T00:55:02;87.73;;;40.93;;
8550;SDS011;4313;42.000;21.380;2024-01-27T00:57:30;63.67;;;30.47;;
8550;SDS011;4313;42.000;21.380;2024-01-27T00:59:57;57.13;;;32.67;;
8550;SDS011;4313;42.000;21.380;2024-01-27T01:02:24;54.23;;;29.07;;
8550;SDS011;4313;42.000;21.380;2024-01-27T01:04:52;46.53;;;26.83;;
8550;SDS011;4313;42.000;21.380;2024-01-27T01:07:19;57.27;;;31.10;;
8550;SDS011;4313;42.000;21.380;2024-01-27T01:09:46;64.27;;;34.77;;
8550;SDS011;4313;42.000;21.380;2024-01-27T01:12:15;65.50;;;36.80;;
8550;SDS011;4313;42.000;21.380;2024-01-27T01:14:42;46.53;;;26.67;;
8550;SDS011;4313;42.000;21.380;2024-01-27T01:17:10;55.30;;;30.40;;
8550;SDS011;4313;42.000;21.380;2024-01-27T01:19:37;36.13;;;20.30;;
8550;SDS011;4313;42.000;21.380;2024-01-27T01:22:04;35.07;;;19.90;;
8550;SDS011;4313;42.000;21.380;2024-01-27T01:24:32;32.13;;;18.53;;
8550;SDS011;4313;42.000;21.380;2024-01-27T01:26:59;23.93;;;16.03;;
8550;SDS011;4313;42.000;21.380;2024-01-27T01:29:28;35.73;;;22.70;;
8550;SDS011;4313;42.000;21.380;2024-01-27T01:31:56;45.80;;;25.20;;
8550;SDS011;4313;42.000;21.380;2024-01-27T01:34:24;57.83;;;30.77;;
8550;SDS011;4313;42.000;21.380;2024-01-27T01:36:51;32.60;;;18.97;;
8550;SDS011;4313;42.000;21.380;2024-01-27T01:39:19;42.13;;;25.47;;
8550;SDS011;4313;42.000;21.380;2024-01-27T01:41:46;38.00;;;22.57;;
8550;SDS011;4313;42.000;21.380;2024-01-27T01:44:14;31.33;;;19.10;;
8550;SDS011;4313;42.000;21.380;2024-01-27T01:46:42;25.07;;;17.00;;
8550;SDS011;4313;42.000;21.380;2024-01-27T01:49:10;28.73;;;16.67;;
8550;SDS011;4313;42.000;21.380;2024-01-27T01:51:37;31.13;;;18.00;;
8550;SDS011;4313;42.000;21.380;2024-01-27T01:54:05;28.30;;;18.67;;
8550;SDS011;4313;42.000;21.380;2024-01-27T01:56:32;33.77;;;22.07;;
8550;SDS011;4313;42.000;21.380;2024-01-27T01:58:59;37.00;;;21.80;;
8550;SDS011;4313;42.000;21.380;2024-01-27T02:01:28;28.00;;;18.93;;
8550;SDS011;4313;42.000;21.380;2024-01-27T02:03:57;31.20;;;19.57;;
8550;SDS011;4313;42.000;21.380;2024-01-27T02:06:24;31.23;;;19.50;;
8550;SDS011;4313;42.000;21.380;2024-01-27T02:08:51;37.73;;;21.17;;
8550;SDS011;4313;42.000;21.380;2024-01-27T02:11:18;33.10;;;21.43;;
8550;SDS011;4313;42.000;21.380;2024-01-27T02:13:46;31.30;;;21.00;;
8550;SDS011;4313;42.000;21.380;2024-01-27T02:16:14;38.93;;;23.03;;
8550;SDS011;4313;42.000;21.380;2024-01-27T02:18:43;36.40;;;22.27;;
8550;SDS011;4313;42.000;21.380;2024-01-27T02:21:11;31.03;;;20.97;;
8550;SDS011;4313;42.000;21.380;2024-01-27T02:23:39;30.50;;;20.97;;
8550;SDS011;4313;42.000;21.380;2024-01-27T02:26:07;29.60;;;19.43;;
8550;SDS011;4313;42.000;21.380;2024-01-27T02:28:34;30.83;;;19.03;;
8550;SDS011;4313;42.000;21.380;2024-01-27T02:31:02;30.13;;;18.27;;
8550;SDS011;4313;42.000;21.380;2024-01-27T02:33:29;27.30;;;18.03;;
8550;SDS011;4313;42.000;21.380;2024-01-27T02:35:56;38.03;;;24.00;;
8550;SDS011;4313;42.000;21.380;2024-01-27T02:38:23;33.30;;;23.43;;
8550;SDS011;4313;42.000;21.380;2024-01-27T02:40:51;30.27;;;20.10;;
8550;SDS011;4313;42.000;21.380;2024-01-27T02:43:19;36.87;;;22.17;;
8550;SDS011;4313;42.000;21.380;2024-01-27T02:45:47;29.87;;;18.67;;
8550;SDS011;4313;42.000;21.380;2024-01-27T02:48:14;37.50;;;22.60;;
8550;SDS011;4313;42.000;21.380;2024-01-27T02:50:41;46.77;;;28.77;;
8550;SDS011;4313;42.000;21.380;2024-01-27T02:53:08;57.40;;;34.80;;
8550;SDS011;4313;42.000;21.380;2024-01-27T02:55:35;42.93;;;26.07;;
8550;SDS011;4313;42.000;21.380;2024-01-27T02:58:03;43.27;;;25.93;;
8550;SDS011;4313;42.000;21.380;2024-01-27T03:00:31;40.40;;;24.80;;
8550;SDS011;4313;42.000;21.380;2024-01-27T03:02:58;49.67;;;30.47;;
8550;SDS011;4313;42.000;21.380;2024-01-27T03:05:26;35.13;;;23.27;;
8550;SDS011;4313;42.000;21.380;2024-01-27T03:07:53;33.60;;;21.23;;
8550;SDS011;4313;42.000;21.380;2024-01-27T03:10:20;31.90;;;21.53;;
8550;SDS011;4313;42.000;21.380;2024-01-27T03:12:47;57.47;;;30.53;;
8550;SDS011;4313;42.000;21.380;2024-01-27T03:15:15;61.57;;;31.53;;
8550;SDS011;4313;42.000;21.380;2024-01-27T03:17:43;41.33;;;26.40;;
8550;SDS011;4313;42.000;21.380;2024-01-27T03:20:11;38.23;;;24.23;;
8550;SDS011;4313;42.000;21.380;2024-01-27T03:22:38;47.97;;;27.70;;
8550;SDS011;4313;42.000;21.380;2024-01-27T03:25:25;37.33;;;24.27;;
8550;SDS011;4313;42.000;21.380;2024-01-27T03:27:52;31.50;;;20.70;;
8550;SDS011;4313;42.000;21.380;2024-01-27T03:30:20;40.90;;;23.63;;
8550;SDS011;4313;42.000;21.380;2024-01-27T03:32:48;36.63;;;22.53;;
8550;SDS011;4313;42.000;21.380;2024-01-27T03:35:16;55.20;;;29.80;;
8550;SDS011;4313;42.000;21.380;2024-01-27T03:37:43;31.73;;;20.60;;
8550;SDS011;4313;42.000;21.380;2024-01-27T03:40:11;28.97;;;18.17;;
8550;SDS011;4313;42.000;21.380;2024-01-27T03:42:39;23.70;;;16.10;;
8550;SDS011;4313;42.000;21.380;2024-01-27T03:45:06;27.70;;;16.80;;
8550;SDS011;4313;42.000;21.380;2024-01-27T03:47:33;23.57;;;15.40;;
8550;SDS011;4313;42.000;21.380;2024-01-27T03:50:02;24.53;;;15.13;;
8550;SDS011;4313;42.000;21.380;2024-01-27T03:52:30;29.90;;;15.80;;
8550;SDS011;4313;42.000;21.380;2024-01-27T03:54:57;23.73;;;15.03;;
8550;SDS011;4313;42.000;21.380;2024-01-27T03:57:24;24.23;;;15.17;;
8550;SDS011;4313;42.000;21.380;2024-01-27T03:59:51;24.27;;;16.60;;
8550;SDS011;4313;42.000;21.380;2024-01-27T04:02:18;23.37;;;16.20;;
8550;SDS011;4313;42.000;21.380;2024-01-27T04:04:45;30.83;;;18.37;;
8550;SDS011;4313;42.000;21.380;2024-01-27T04:07:14;23.67;;;16.20;;
8550;SDS011;4313;42.000;21.380;2024-01-27T04:09:41;27.13;;;16.07;;
8550;SDS011;4313;42.000;21.380;2024-01-27T04:12:08;26.47;;;17.93;;
8550;SDS011;4313;42.000;21.380;2024-01-27T04:14:36;25.93;;;17.37;;
8550;SDS011;4313;42.000;21.380;2024-01-27T04:17:03;22.00;;;14.97;;
8550;SDS011;4313;42.000;21.380;2024-01-27T04:19:31;23.07;;;14.57;;
8550;SDS011;4313;42.000;21.380;2024-01-27T04:21:58;20.33;;;12.53;;
8550;SDS011;4313;42.000;21.380;2024-01-27T04:24:26;20.80;;;13.50;;
8550;SDS011;4313;42.000;21.380;2024-01-27T04:26:54;15.97;;;11.53;;
8550;SDS011;4313;42.000;21.380;2024-01-27T04:29:21;19.30;;;12.70;;
8550;SDS011;4313;42.000;21.380;2024-01-27T04:31:48;24.20;;;14.10;;
8550;SDS011;4313;42.000;21.380;2024-01-27T04:34:15;23.10;;;14.23;;
8550;SDS011;4313;42.000;21.380;2024-01-27T04:36:42;19.57;;;12.93;;
8550;SDS011;4313;42.000;21.380;2024-01-27T04:39:09;21.60;;;13.40;;
8550;SDS011;4313;42.000;21.380;2024-01-27T04:41:42;22.57;;;14.03;;
8550;SDS011;4313;42.000;21.380;2024-01-27T04:44:09;19.17;;;13.43;;
8550;SDS011;4313;42.000;21.380;2024-01-27T04:46:37;19.53;;;12.97;;
8550;SDS011;4313;42.000;21.380;2024-01-27T04:49:04;20.63;;;13.57;;
8550;SDS011;4313;42.000;21.380;2024-01-27T04:51:31;20.53;;;13.13;;
8550;SDS011;4313;42.000;21.380;2024-01-27T04:53:59;18.30;;;13.63;;
8550;SDS011;4313;42.000;21.380;2024-01-27T04:56:26;23.97;;;14.67;;
8550;SDS011;4313;42.000;21.380;2024-01-27T04:58:54;18.77;;;12.93;;
8550;SDS011;4313;42.000;21.380;2024-01-27T05:01:22;30.10;;;17.90;;
8550;SDS011;4313;42.000;21.380;2024-01-27T05:03:49;28.13;;;17.80;;
8550;SDS011;4313;42.000;21.380;2024-01-27T05:06:16;30.80;;;18.87;;
8550;SDS011;4313;42.000;21.380;2024-01-27T05:08:44;23.67;;;15.70;;
8550;SDS011;4313;42.000;21.380;2024-01-27T05:11:11;22.93;;;15.43;;
8550;SDS011;4313;42.000;21.380;2024-01-27T05:13:39;23.03;;;15.87;;
8550;SDS011;4313;42.000;21.380;2024-01-27T05:16:08;23.70;;;16.93;;
8550;SDS011;4313;42.000;21.380;2024-01-27T05:18:35;18.43;;;12.23;;
8550;SDS011;4313;42.000;21.380;2024-01-27T05:21:02;22.90;;;14.80;;
8550;SDS011;4313;42.000;21.380;2024-01-27T05:23:30;22.27;;;16.90;;
8550;SDS011;4313;42.000;21.380;2024-01-27T05:25:57;24.50;;;17.53;;
8550;SDS011;4313;42.000;21.380;2024-01-27T05:28:24;21.73;;;15.30;;
8550;SDS011;4313;42.000;21.380;2024-01-27T05:30:51;22.57;;;14.80;;
8550;SDS011;4313;42.000;21.380;2024-01-27T05:33:20;23.33;;;15.47;;
8550;SDS011;4313;42.000;21.380;2024-01-27T05:35:47;32.47;;;23.87;;
8550;SDS011;4313;42.000;21.380;2024-01-27T05:38:33;26.07;;;17.63;;
8550;SDS011;4313;42.000;21.380;2024-01-27T05:41:00;25.87;;;17.57;;
8550;SDS011;4313;42.000;21.380;2024-01-27T05:43:27;18.33;;;12.47;;
8550;SDS011;4313;42.000;21.380;2024-01-27T05:45:55;19.40;;;12.87;;
8550;SDS011;4313;42.000;21.380;2024-01-27T05:48:23;21.10;;;15.30;;
8550;SDS011;4313;42.000;21.380;2024-01-27T05:51:00;17.70;;;13.20;;
8550;SDS011;4313;42.000;21.380;2024-01-27T05:53:27;17.33;;;12.50;;
8550;SDS011;4313;42.000;21.380;2024-01-27T05:55:55;20.20;;;13.90;;
8550;SDS011;4313;42.000;21.380;2024-01-27T05:58:23;21.07;;;13.07;;
8550;SDS011;4313;42.000;21.380;2024-01-27T06:00:50;21.37;;;13.87;;
8550;SDS011;4313;42.000;21.380;2024-01-27T06:03:17;22.47;;;15.33;;
8550;SDS011;4313;42.000;21.380;2024-01-27T06:05:46;19.03;;;13.17;;
8550;SDS011;4313;42.000;21.380;2024-01-27T06:08:13;20.77;;;15.10;;
8550;SDS011;4313;42.000;21.380;2024-01-27T06:10:59;20.97;;;13.80;;
8550;SDS011;4313;42.000;21.380;2024-01-27T06:13:26;20.23;;;12.57;;
8550;SDS011;4313;42.000;21.380;2024-01-27T06:15:53;21.53;;;15.60;;
8550;SDS011;4313;42.000;21.380;2024-01-27T06:18:20;28.50;;;18.53;;
8550;SDS011;4313;42.000;21.380;2024-01-27T06:20:51;23.23;;;16.47;;
8550;SDS011;4313;42.000;21.380;2024-01-27T06:23:18;25.50;;;18.00;;
8550;SDS011;4313;42.000;21.380;2024-01-27T06:25:45;25.43;;;17.90;;
8550;SDS011;4313;42.000;21.380;2024-01-27T06:28:12;25.90;;;17.40;;
8550;SDS011;4313;42.000;21.380;2024-01-27T06:30:39;26.83;;;18.67;;
8550;SDS011;4313;42.000;21.380;2024-01-27T06:33:06;28.30;;;19.60;;
8550;SDS011;4313;42.000;21.380;2024-01-27T06:35:33;25.93;;;20.20;;
8550;SDS011;4313;42.000;21.380;2024-01-27T06:38:01;26.20;;;17.23;;
8550;SDS011;4313;42.000;21.380;2024-01-27T06:40:29;21.60;;;17.03;;
8550;SDS011;4313;42.000;21.380;2024-01-27T06:42:56;26.90;;;17.13;;
8550;SDS011;4313;42.000;21.380;2024-01-27T06:45:23;26.03;;;18.90;;
8550;SDS011;4313;42.000;21.380;2024-01-27T06:47:50;26.03;;;17.33;;
8550;SDS011;4313;42.000;21.380;2024-01-27T06:50:17;26.83;;;20.93;;
8550;SDS011;4313;42.000;21.380;2024-01-27T06:52:44;28.53;;;17.50;;
8550;SDS011;4313;42.000;21.380;2024-01-27T06:55:12;24.73;;;17.47;;
8550;SDS011;4313;42.000;21.380;2024-01-27T06:57:39;28.93;;;23.37;;
8550;SDS011;4313;42.000;21.380;2024-01-27T07:00:08;29.73;;;26.40;;
8550;SDS011;4313;42.000;21.380;2024-01-27T07:02:39;26.17;;;18.90;;
8550;SDS011;4313;42.000;21.380;2024-01-27T07:05:07;37.20;;;21.70;;
8550;SDS011;4313;42.000;21.380;2024-01-27T07:07:34;30.40;;;20.27;;
8550;SDS011;4313;42.000;21.380;2024-01-27T07:10:02;27.93;;;19.00;;
8550;SDS011;4313;42.000;21.380;2024-01-27T07:12:30;23.50;;;17.33;;
8550;SDS011;4313;42.000;21.380;2024-01-27T07:14:57;26.13;;;17.00;;
8550;SDS011;4313;42.000;21.380;2024-01-27T07:17:25;27.90;;;16.53;;
8550;SDS011;4313;42.000;21.380;2024-01-27T07:19:52;20.30;;;14.53;;
8550;SDS011;4313;42.000;21.380;2024-01-27T07:22:19;20.13;;;12.87;;
8550;SDS011;4313;42.000;21.380;2024-01-27T07:24:46;22.30;;;14.77;;
8550;SDS011;4313;42.000;21.380;2024-01-27T07:27:16;22.33;;;16.00;;
8550;SDS011;4313;42.000;21.380;2024-01-27T07:29:45;24.70;;;21.97;;
8550;SDS011;4313;42.000;21.380;2024-01-27T07:32:12;18.07;;;13.53;;
8550;SDS011;4313;42.000;21.380;2024-01-27T07:34:41;24.07;;;12.90;;
8550;SDS011;4313;42.000;21.380;2024-01-27T07:37:08;29.47;;;19.27;;
8550;SDS011;4313;42.000;21.380;2024-01-27T07:39:36;22.70;;;14.60;;
8550;SDS011;4313;42.000;21.380;2024-01-27T07:42:03;24.10;;;16.53;;
8550;SDS011;4313;42.000;21.380;2024-01-27T07:44:30;21.43;;;14.70;;
8550;SDS011;4313;42.000;21.380;2024-01-27T07:46:58;21.17;;;13.73;;
8550;SDS011;4313;42.000;21.380;2024-01-27T07:49:25;22.07;;;15.90;;
8550;SDS011;4313;42.000;21.380;2024-01-27T07:51:52;15.53;;;10.40;;
8550;SDS011;4313;42.000;21.380;2024-01-27T07:54:20;14.20;;;7.50;;
8550;SDS011;4313;42.000;21.380;2024-01-27T07:56:48;8.30;;;5.30;;
8550;SDS011;4313;42.000;21.380;2024-01-27T07:59:15;8.97;;;5.47;;
8550;SDS011;4313;42.000;21.380;2024-01-27T08:01:42;10.67;;;7.50;;
8550;SDS011;4313;42.000;21.380;2024-01-27T08:04:11;11.87;;;6.97;;
8550;SDS011;4313;42.000;21.380;2024-01-27T08:06:46;12.57;;;8.83;;
8550;SDS011;4313;42.000;21.380;2024-01-27T08:09:13;9.20;;;6.97;;
8550;SDS011;4313;42.000;21.380;2024-01-27T08:11:41;10.80;;;6.90;;
8550;SDS011;4313;42.000;21.380;2024-01-27T08:14:08;10.43;;;6.77;;
8550;SDS011;4313;42.000;21.380;2024-01-27T08:16:35;11.47;;;7.87;;
8550;SDS011;4313;42.000;21.380;2024-01-27T08:19:02;16.13;;;9.65;;
8550;SDS011;4313;42.000;21.380;2024-01-27T08:21:31;12.50;;;7.43;;
8550;SDS011;4313;42.000;21.380;2024-01-27T08:23:58;9.82;;;6.70;;
8550;SDS011;4313;42.000;21.380;2024-01-27T08:26:25;12.80;;;7.50;;
8550;SDS011;4313;42.000;21.380;2024-01-27T08:28:52;11.52;;;8.07;;
8550;SDS011;4313;42.000;21.380;2024-01-27T08:31:21;11.75;;;6.95;;
8550;SDS011;4313;42.000;21.380;2024-01-27T08:33:48;11.15;;;7.53;;
8550;SDS011;4313;42.000;21.380;2024-01-27T08:36:15;8.70;;;6.88;;
8550;SDS011;4313;42.000;21.380;2024-01-27T08:38:44;8.48;;;5.20;;
8550;SDS011;4313;42.000;21.380;2024-01-27T08:41:11;6.60;;;4.13;;
8550;SDS011;4313;42.000;21.380;2024-01-27T08:43:38;6.90;;;4.20;;
8550;SDS011;4313;42.000;21.380;2024-01-27T08:46:06;5.57;;;3.83;;
8550;SDS011;4313;42.000;21.380;2024-01-27T08:48:36;7.20;;;3.87;;
8550;SDS011;4313;42.000;21.380;2024-01-27T08:51:03;9.43;;;5.47;;
8550;SDS011;4313;42.000;21.380;2024-01-27T08:53:30;14.20;;;7.67;;
8550;SDS011;4313;42.000;21.380;2024-01-27T08:55:59;15.83;;;8.13;;
8550;SDS011;4313;42.000;21.380;2024-01-27T08:58:27;13.40;;;5.90;;
8550;SDS011;4313;42.000;21.380;2024-01-27T09:00:54;12.45;;;7.35;;
8550;SDS011;4313;42.000;21.380;2024-01-27T09:03:21;10.18;;;6.53;;
8550;SDS011;4313;42.000;21.380;2024-01-27T09:05:48;10.15;;;6.93;;
8550;SDS011;4313;42.000;21.380;2024-01-27T09:08:15;9.90;;;5.28;;
8550;SDS011;4313;42.000;21.380;2024-01-27T09:10:43;9.80;;;5.45;;
8550;SDS011;4313;42.000;21.380;2024-01-27T09:13:11;9.60;;;4.93;;
8550;SDS011;4313;42.000;21.380;2024-01-27T09:15:38;10.18;;;4.78;;
8550;SDS011;4313;42.000;21.380;2024-01-27T09:18:05;11.23;;;5.32;;
8550;SDS011;4313;42.000;21.380;2024-01-27T09:20:32;11.90;;;4.57;;
8550;SDS011;4313;42.000;21.380;2024-01-27T09:22:59;4.22;;;3.28;;
8550;SDS011;4313;42.000;21.380;2024-01-27T09:25:26;5.38;;;2.92;;
8550;SDS011;4313;42.000;21.380;2024-01-27T09:27:55;4.78;;;3.03;;
8550;SDS011;4313;42.000;21.380;2024-01-27T09:30:27;4.60;;;2.72;;
8550;SDS011;4313;42.000;21.380;2024-01-27T09:32:54;6.07;;;3.10;;
8550;SDS011;4313;42.000;21.380;2024-01-27T09:35:21;6.95;;;3.38;;
8550;SDS011;4313;42.000;21.380;2024-01-27T09:37:48;6.45;;;3.33;;
8550;SDS011;4313;42.000;21.380;2024-01-27T09:40:15;6.85;;;4.15;;
8550;SDS011;4313;42.000;21.380;2024-01-27T09:42:43;8.90;;;5.07;;
8550;SDS011;4313;42.000;21.380;2024-01-27T09:45:16;5.18;;;2.88;;
8550;SDS011;4313;42.000;21.380;2024-01-27T09:47:45;3.63;;;2.42;;
8550;SDS011;4313;42.000;21.380;2024-01-27T09:50:12;3.88;;;2.60;;
8550;SDS011;4313;42.000;21.380;2024-01-27T09:52:41;3.80;;;2.83;;
8550;SDS011;4313;42.000;21.380;2024-01-27T09:55:08;3.88;;;2.08;;
8550;SDS011;4313;42.000;21.380;2024-01-27T09:57:36;5.13;;;4.03;;
8550;SDS011;4313;42.000;21.380;2024-01-27T10:00:04;3.72;;;2.67;;
8550;SDS011;4313;42.000;21.380;2024-01-27T10:02:32;6.28;;;3.58;;
8550;SDS011;4313;42.000;21.380;2024-01-27T10:05:01;6.10;;;3.58;;
8550;SDS011;4313;42.000;21.380;2024-01-27T10:07:30;4.93;;;3.00;;
8550;SDS011;4313;42.000;21.380;2024-01-27T10:09:58;5.25;;;2.80;;
8550;SDS011;4313;42.000;21.380;2024-01-27T10:12:25;4.82;;;3.08;;
8550;SDS011;4313;42.000;21.380;2024-01-27T10:14:52;5.35;;;3.33;;
8550;SDS011;4313;42.000;21.380;2024-01-27T10:17:20;4.53;;;2.40;;
8550;SDS011;4313;42.000;21.380;2024-01-27T10:19:47;7.32;;;2.80;;
8550;SDS011;4313;42.000;21.380;2024-01-27T10:22:16;5.22;;;2.83;;
8550;SDS011;4313;42.000;21.380;2024-01-27T10:24:43;6.82;;;2.53;;
8550;SDS011;4313;42.000;21.380;2024-01-27T10:27:12;6.40;;;4.82;;
8550;SDS011;4313;42.000;21.380;2024-01-27T10:29:40;4.03;;;3.22;;
8550;SDS011;4313;42.000;21.380;2024-01-27T10:32:10;4.25;;;2.50;;
8550;SDS011;4313;42.000;21.380;2024-01-27T10:34:37;4.30;;;2.20;;
8550;SDS011;4313;42.000;21.380;2024-01-27T10:37:04;6.28;;;3.88;;
8550;SDS011;4313;42.000;21.380;2024-01-27T10:39:32;9.65;;;4.75;;
8550;SDS011;4313;42.000;21.380;2024-01-27T10:41:59;9.10;;;5.45;;
8550;SDS011;4313;42.000;21.380;2024-01-27T10:44:29;4.47;;;2.83;;
8550;SDS011;4313;42.000;21.380;2024-01-27T10:46:56;6.15;;;3.70;;
8550;SDS011;4313;42.000;21.380;2024-01-27T10:49:28;4.82;;;3.50;;
8550;SDS011;4313;42.000;21.380;2024-01-27T10:51:59;5.47;;;3.42;;
8550;SDS011;4313;42.000;21.380;2024-01-27T10:54:27;5.38;;;3.30;;
8550;SDS011;4313;42.000;21.380;2024-01-27T10:56:56;4.05;;;3.17;;
8550;SDS011;4313;42.000;21.380;2024-01-27T10:59:25;3.00;;;2.33;;
8550;SDS011;4313;42.000;21.380;2024-01-27T11:01:53;3.95;;;2.47;;
8550;SDS011;4313;42.000;21.380;2024-01-27T11:04:21;3.88;;;2.17;;
8550;SDS011;4313;42.000;21.380;2024-01-27T11:06:48;3.33;;;2.08;;
8550;SDS011;4313;42.000;21.380;2024-01-27T11:09:15;2.63;;;2.22;;
8550;SDS011;4313;42.000;21.380;2024-01-27T11:11:44;2.90;;;2.17;;
8550;SDS011;4313;42.000;21.380;2024-01-27T11:14:13;4.03;;;2.60;;
8550;SDS011;4313;42.000;21.380;2024-01-27T11:16:40;3.33;;;2.15;;
8550;SDS011;4313;42.000;21.380;2024-01-27T11:19:12;3.85;;;2.70;;
8550;SDS011;4313;42.000;21.380;2024-01-27T11:21:39;2.78;;;2.20;;
8550;SDS011;4313;42.000;21.380;2024-01-27T11:24:13;3.72;;;2.83;;
8550;SDS011;4313;42.000;21.380;2024-01-27T11:26:41;9.45;;;5.40;;
8550;SDS011;4313;42.000;21.380;2024-01-27T11:29:08;6.15;;;4.63;;
8550;SDS011;4313;42.000;21.380;2024-01-27T11:31:46;5.47;;;2.03;;
8550;SDS011;4313;42.000;21.380;2024-01-27T11:34:13;6.50;;;2.20;;
8550;SDS011;4313;42.000;21.380;2024-01-27T11:36:42;3.65;;;2.00;;
8550;SDS011;4313;42.000;21.380;2024-01-27T11:39:22;4.40;;;2.17;;
8550;SDS011;4313;42.000;21.380;2024-01-27T11:41:52;3.92;;;2.53;;
8550;SDS011;4313;42.000;21.380;2024-01-27T11:44:30;4.13;;;2.38;;
8550;SDS011;4313;42.000;21.380;2024-01-27T11:46:58;6.97;;;4.68;;
8550;SDS011;4313;42.000;21.380;2024-01-27T11:49:25;4.13;;;2.95;;
8550;SDS011;4313;42.000;21.380;2024-01-27T11:51:53;4.05;;;2.70;;
8550;SDS011;4313;42.000;21.380;2024-01-27T11:54:20;5.20;;;2.90;;
8550;SDS011;4313;42.000;21.380;2024-01-27T11:57:06;5.63;;;2.63;;
8550;SDS011;4313;42.000;21.380;2024-01-27T11:59:33;4.15;;;2.42;;
8550;SDS011;4313;42.000;21.380;2024-01-27T12:02:02;3.13;;;2.40;;
8550;SDS011;4313;42.000;21.380;2024-01-27T12:04:29;4.68;;;2.50;;
8550;SDS011;4313;42.000;21.380;2024-01-27T12:06:56;3.22;;;2.15;;
8550;SDS011;4313;42.000;21.380;2024-01-27T12:09:23;5.78;;;2.67;;
8550;SDS011;4313;42.000;21.380;2024-01-27T12:11:50;5.75;;;2.30;;
8550;SDS011;4313;42.000;21.380;2024-01-27T12:14:19;3.45;;;2.80;;
8550;SDS011;4313;42.000;21.380;2024-01-27T12:16:46;3.85;;;2.42;;
8550;SDS011;4313;42.000;21.380;2024-01-27T12:19:14;6.57;;;3.40;;
8550;SDS011;4313;42.000;21.380;2024-01-27T12:21:47;4.40;;;2.83;;
8550;SDS011;4313;42.000;21.380;2024-01-27T12:24:15;2.85;;;2.30;;
8550;SDS011;4313;42.000;21.380;2024-01-27T12:26:45;5.55;;;2.50;;
8550;SDS011;4313;42.000;21.380;2024-01-27T12:29:12;3.97;;;1.98;;
8550;SDS011;4313;42.000;21.380;2024-01-27T12:31:42;4.22;;;2.67;;
8550;SDS011;4313;42.000;21.380;2024-01-27T12:34:10;3.45;;;2.40;;
8550;SDS011;4313;42.000;21.380;2024-01-27T12:36:41;4.88;;;2.60;;
8550;SDS011;4313;42.000;21.380;2024-01-27T12:39:08;4.35;;;3.30;;
8550;SDS011;4313;42.000;21.380;2024-01-27T12:41:36;5.43;;;2.70;;
8550;SDS011;4313;42.000;21.380;2024-01-27T12:44:03;3.78;;;2.97;;
8550;SDS011;4313;42.000;21.380;2024-01-27T12:46:30;5.45;;;2.67;;
8550;SDS011;4313;42.000;21.380;2024-01-27T12:48:58;3.30;;;2.40;;
8550;SDS011;4313;42.000;21.380;2024-01-27T12:51:25;4.55;;;2.70;;
8550;SDS011;4313;42.000;21.380;2024-01-27T12:53:53;4.75;;;2.60;;
8550;SDS011;4313;42.000;21.380;2024-01-27T12:56:20;2.78;;;1.98;;
8550;SDS011;4313;42.000;21.380;2024-01-27T12:58:47;3.08;;;2.20;;
8550;SDS011;4313;42.000;21.380;2024-01-27T13:01:15;3.88;;;2.38;;
8550;SDS011;4313;42.000;21.380;2024-01-27T13:03:42;5.00;;;2.42;;
8550;SDS011;4313;42.000;21.380;2024-01-27T13:06:09;2.67;;;2.20;;
8550;SDS011;4313;42.000;21.380;2024-01-27T13:08:36;4.85;;;2.30;;
8550;SDS011;4313;42.000;21.380;2024-01-27T13:11:05;6.88;;;3.80;;
8550;SDS011;4313;42.000;21.380;2024-01-27T13:13:32;5.53;;;3.90;;
8550;SDS011;4313;42.000;21.380;2024-01-27T13:15:59;5.00;;;2.67;;
8550;SDS011;4313;42.000;21.380;2024-01-27T13:18:26;10.40;;;5.07;;
8550;SDS011;4313;42.000;21.380;2024-01-27T13:20:53;17.17;;;9.20;;
8550;SDS011;4313;42.000;21.380;2024-01-27T13:23:20;9.77;;;5.25;;
8550;SDS011;4313;42.000;21.380;2024-01-27T13:25:48;7.20;;;3.58;;
8550;SDS011;4313;42.000;21.380;2024-01-27T13:28:17;5.15;;;3.95;;
8550;SDS011;4313;42.000;21.380;2024-01-27T13:30:45;6.32;;;3.97;;
8550;SDS011;4313;42.000;21.380;2024-01-27T13:33:13;7.20;;;4.28;;
8550;SDS011;4313;42.000;21.380;2024-01-27T13:35:40;6.38;;;3.40;;
8550;SDS011;4313;42.000;21.380;2024-01-27T13:38:09;5.45;;;3.28;;
8550;SDS011;4313;42.000;21.380;2024-01-27T13:40:37;3.80;;;2.50;;
8550;SDS011;4313;42.000;21.380;2024-01-27T13:43:04;4.10;;;2.72;;
8550;SDS011;4313;42.000;21.380;2024-01-27T13:45:33;4.93;;;3.47;;
8550;SDS011;4313;42.000;21.380;2024-01-27T13:48:00;5.22;;;2.40;;
8550;SDS011;4313;42.000;21.380;2024-01-27T13:50:27;4.20;;;2.58;;
8550;SDS011;4313;42.000;21.380;2024-01-27T13:52:56;3.70;;;2.72;;
8550;SDS011;4313;42.000;21.380;2024-01-27T13:55:23;2.88;;;2.50;;
8550;SDS011;4313;42.000;21.380;2024-01-27T13:57:51;5.05;;;3.05;;
8550;SDS011;4313;42.000;21.380;2024-01-27T14:00:18;7.63;;;2.92;;
8550;SDS011;4313;42.000;21.380;2024-01-27T14:02:47;3.70;;;2.28;;
8550;SDS011;4313;42.000;21.380;2024-01-27T14:05:15;6.65;;;2.42;;
8550;SDS011;4313;42.000;21.380;2024-01-27T14:07:42;4.95;;;2.55;;
8550;SDS011;4313;42.000;21.380;2024-01-27T14:10:09;5.25;;;3.20;;
8550;SDS011;4313;42.000;21.380;2024-01-27T14:12:38;8.43;;;2.70;;
8550;SDS011;4313;42.000;21.380;2024-01-27T14:15:05;5.40;;;2.77;;
8550;SDS011;4313;42.000;21.380;2024-01-27T14:17:33;6.38;;;3.08;;
8550;SDS011;4313;42.000;21.380;2024-01-27T14:20:03;6.55;;;2.60;;
8550;SDS011;4313;42.000;21.380;2024-01-27T14:22:34;6.73;;;3.07;;
8550;SDS011;4313;42.000;21.380;2024-01-27T14:25:01;6.90;;;3.60;;
8550;SDS011;4313;42.000;21.380;2024-01-27T14:27:31;5.23;;;2.77;;
8550;SDS011;4313;42.000;21.380;2024-01-27T14:29:58;4.50;;;3.10;;
8550;SDS011;4313;42.000;21.380;2024-01-27T14:32:25;4.30;;;2.83;;
8550;SDS011;4313;42.000;21.380;2024-01-27T14:34:52;7.35;;;3.38;;
8550;SDS011;4313;42.000;21.380;2024-01-27T14:37:21;8.03;;;4.30;;
8550;SDS011;4313;42.000;21.380;2024-01-27T14:39:48;34.23;;;18.40;;
8550;SDS011;4313;42.000;21.380;2024-01-27T14:42:15;47.60;;;23.30;;
8550;SDS011;4313;42.000;21.380;2024-01-27T14:44:43;12.03;;;4.80;;
8550;SDS011;4313;42.000;21.380;2024-01-27T14:47:11;8.33;;;3.60;;
8550;SDS011;4313;42.000;21.380;2024-01-27T14:49:38;4.67;;;2.93;;